Terminal Aerodrome Forecast
Issued by NWS

Home | Current Version | Previous Version | Text Only | Print | Product List | Glossary On
Versions: 1 2 3 4 5 6 7 8 9 10 11 12 13 14 15 16 17 18 19 20 21 22 23 24 25 26 27 28 29 30 31 32
000
FTUS43 KMPX 160109 AAB
TAFMKT
TAF AMD
KMKT 160109Z 1601/1624 08005KT P6SM VCSH BKN008 OVC040
     FM160300 06004KT P6SM BKN015
     FM160800 06005KT 3SM BR OVC008
     FM161600 07007KT P6SM OVC013
     FM162100 05005KT P6SM SCT015 BKN050=

USA.gov is the U.S. government's official web portal to all federal, state and local government web resources and services.